Arlington, OH (45814)

2:55 AM EST on January 28, 2015 (GMT -0500)
KOHARLIN2 | Change Station
CLOSE
Current Station
Personal Weather Station
Location: ARLINGTON, OH
Elevation: 850 ft
Nearby Weather Stations

Elev 850 ft 40.87 °N, 83.66 °W | Updated 3 seconds ago

Partly Cloudy
Partly Cloudy
0.6 °F
Feels Like 1 °F
N
0.0
Wind Variable Wind from WNW
Gusts 0.0 mph

Today
High -- | Low -- °F
--% Chance of Precip.
Yesterday
High -- | Low -- °F
Precip. -- in
7:48 AM 5:46 PM
Waxing Gibbous, 62% visible
Pressure 30.27 in
Visibility 5.0 miles
Clouds Clear
Windchill 1 °F
Dew Point -4 °F
Humidity 82%
Rainfall 0.00 in
Snow Depth Not available.
UV 0 out of 12
Pollen .10 out of 12
Air Quality Not available.
Flu Activity Not available.
METAR KFDY 280653Z AUTO 00000KT 5SM BR CLR M14/M17 A3024 RMK AO2 SLP250 I1000 T11441167

More Conditions Fewer Conditions

Pressure 30.27 in
Visibility 5.0 miles
Clouds Clear
Windchill 1 °F
Dew Point -4 °F
Humidity 82%
Rainfall 0.00 in
Snow Depth Not available.
UV 0 out of 12
Pollen .10 out of 12
Air Quality Not available.
Flu Activity Not available.
METAR KFDY 280653Z AUTO 00000KT 5SM BR CLR M14/M17 A3024 RMK AO2 SLP250 I1000 T11441167

More Conditions Fewer Conditions

10-Day Weather Forecast

Almanac

Astronomy

Jan. 28, 2015 Rise Set
Actual Time
Civil Twilight
Nautical Twilight
Astronomical Twilight
Moon
Length of Visible Light
Length of Day
Tomorrow will be .
, % of the Moon is Illuminated

Today's Extremes

State Highs State Lows

Community

WunderPhotos

Upload Photos

1,791,117 photos uploaded!

WunderBlogs® & News

Nearby

Air Quality

  Air Quality AQ Index Pollutant
Not available.

Snow Depth

Station Depth Elevation

Earthquake Activity

City Distance Mag. Time & Date
Minimum magnitude displayed is 2.5.

Coastal Water Temperatures

Place Temperature

Nearby Weather Stations